DLH61A LPPR-EDDM
Flight info
| Callsign | DLH61A |
|---|---|
| Flight time | 2h 19m |
| Altitude | 34000 |
| Route | BELDU DCT ADORO DCT FITSE DCT DGO DCT LPA DCT GOSVI DCT TOPTU DCT TOU DCT GAI DCT MEN DCT NINUN DCT LATAM DCT ETREK DCT LTP DCT SOPLO DCT OMASI DCT KINNI DCT SOSAL DCT KORED DCT BERSU N871 DITON/N0424F350 DCT NUNRI T103 BETOS BETOS1A |
| Aircraft | A21N/M-SDE2E3FGIJ1LORWXYZ/HB1 |
Departure
| Time | 2026-05-04 11:19 |
|---|---|
| Airport | Francisco de Sá Carneiro Airport (LPPR) |
Arrival
| Time | 2026-05-04 13:38 |
|---|---|
| Airport | Munich Airport (EDDM) |
| Time | Latitude | Longitude | Altitude | Speed | Heading |
|---|---|---|---|---|---|
| 2026-05-04 10:37 | 41.23437 | -8.67270 | 240 ft | 0 kts | 59° |
| 2026-05-04 11:08 | 41.23431 | -8.67285 | 240 ft | 4 kts | 57° |
| 2026-05-04 11:10 | 41.23481 | -8.67385 | 240 ft | 0 kts | 168° |
| 2026-05-04 11:14 | 41.23476 | -8.67384 | 240 ft | 2 kts | 168° |
| 2026-05-04 11:16 | 41.23303 | -8.67626 | 241 ft | 5 kts | 258° |
| 2026-05-04 11:16 | 41.23298 | -8.67679 | 241 ft | 7 kts | 275° |
| 2026-05-04 11:16 | 41.23329 | -8.67733 | 241 ft | 9 kts | 342° |
| 2026-05-04 11:17 | 41.23429 | -8.67762 | 242 ft | 35 kts | 348° |
| 2026-05-04 11:17 | 41.23931 | -8.67893 | 239 ft | 109 kts | 349° |
| 2026-05-04 11:19 | 41.32693 | -8.70209 | 3391 ft | 243 kts | 347° |
| 2026-05-04 11:19 | 41.34396 | -8.70658 | 4142 ft | 254 kts | 347° |
| 2026-05-04 11:19 | 41.36143 | -8.71113 | 5068 ft | 258 kts | 347° |
| 2026-05-04 11:19 | 41.37916 | -8.71570 | 6019 ft | 260 kts | 348° |
| 2026-05-04 11:20 | 41.39712 | -8.71672 | 6871 ft | 267 kts | 6° |
| 2026-05-04 11:20 | 41.41470 | -8.70820 | 7665 ft | 276 kts | 31° |
| 2026-05-04 11:20 | 41.42836 | -8.68992 | 8463 ft | 285 kts | 56° |
| 2026-05-04 11:20 | 41.43540 | -8.66498 | 9279 ft | 292 kts | 76° |
| 2026-05-04 11:22 | 41.42926 | -8.45515 | 13701 ft | 353 kts | 97° |
| 2026-05-04 11:22 | 41.42592 | -8.42258 | 14352 ft | 357 kts | 97° |
| 2026-05-04 11:23 | 41.42253 | -8.38958 | 15000 ft | 362 kts | 97° |
| 2026-05-04 11:23 | 41.41909 | -8.35612 | 15634 ft | 367 kts | 98° |
| 2026-05-04 11:24 | 41.39736 | -8.14636 | 19312 ft | 394 kts | 98° |
| 2026-05-04 11:25 | 41.39363 | -8.11048 | 19865 ft | 398 kts | 98° |
| 2026-05-04 11:25 | 41.38980 | -8.07386 | 20417 ft | 401 kts | 98° |
| 2026-05-04 11:25 | 41.38594 | -8.03698 | 20952 ft | 404 kts | 98° |
| 2026-05-04 11:26 | 41.37807 | -7.96224 | 22009 ft | 411 kts | 99° |
| 2026-05-04 11:27 | 41.36571 | -7.69031 | 25267 ft | 435 kts | 82° |
| 2026-05-04 11:28 | 41.36957 | -7.65022 | 25677 ft | 438 kts | 82° |
| 2026-05-04 11:28 | 41.37332 | -7.60989 | 26075 ft | 441 kts | 82° |
| 2026-05-04 11:28 | 41.37698 | -7.56925 | 26492 ft | 443 kts | 83° |
| 2026-05-04 11:28 | 41.38054 | -7.52833 | 26892 ft | 446 kts | 83° |
| 2026-05-04 11:29 | 41.38407 | -7.48777 | 27274 ft | 448 kts | 83° |
| 2026-05-04 11:29 | 41.38766 | -7.44634 | 27629 ft | 452 kts | 83° |
| 2026-05-04 11:29 | 41.39126 | -7.40468 | 27982 ft | 454 kts | 83° |
| 2026-05-04 11:29 | 41.39487 | -7.36279 | 28343 ft | 457 kts | 83° |
| 2026-05-04 11:31 | 41.42030 | -7.06318 | 30596 ft | 474 kts | 83° |
| 2026-05-04 11:33 | 41.44566 | -6.75464 | 32653 ft | 479 kts | 83° |
| 2026-05-04 11:33 | 41.44924 | -6.71047 | 32959 ft | 479 kts | 83° |
| 2026-05-04 11:33 | 41.45276 | -6.66637 | 33237 ft | 479 kts | 84° |
| 2026-05-04 11:34 | 41.45627 | -6.62232 | 33516 ft | 479 kts | 84° |
| 2026-05-04 11:34 | 41.45976 | -6.57811 | 33804 ft | 479 kts | 84° |
| 2026-05-04 11:34 | 41.46321 | -6.53405 | 34034 ft | 478 kts | 84° |
| 2026-05-04 11:34 | 41.46668 | -6.49005 | 34060 ft | 477 kts | 84° |
| 2026-05-04 11:35 | 41.47353 | -6.40288 | 34030 ft | 475 kts | 84° |
| 2026-05-04 11:35 | 41.48029 | -6.31538 | 34014 ft | 474 kts | 83° |
| 2026-05-04 11:36 | 41.49725 | -6.23094 | 34017 ft | 473 kts | 67° |
| 2026-05-04 11:36 | 41.52234 | -6.14978 | 34000 ft | 473 kts | 66° |
| 2026-05-04 11:37 | 41.54727 | -6.06839 | 33988 ft | 473 kts | 67° |
| 2026-05-04 11:37 | 41.57163 | -5.98743 | 33998 ft | 474 kts | 67° |
| 2026-05-04 11:38 | 41.59618 | -5.90572 | 34008 ft | 474 kts | 67° |
| 2026-05-04 11:38 | 41.62070 | -5.82399 | 33999 ft | 474 kts | 67° |
| 2026-05-04 11:39 | 41.64510 | -5.74232 | 34001 ft | 472 kts | 68° |
| 2026-05-04 11:41 | 41.72971 | -5.45721 | 33998 ft | 472 kts | 68° |
| 2026-05-04 11:41 | 41.75387 | -5.37542 | 34002 ft | 472 kts | 68° |
| 2026-05-04 11:42 | 41.77780 | -5.29409 | 34004 ft | 473 kts | 68° |
| 2026-05-04 11:42 | 41.80181 | -5.21200 | 34018 ft | 474 kts | 68° |
| 2026-05-04 11:43 | 41.82578 | -5.12977 | 34022 ft | 473 kts | 68° |
| 2026-05-04 11:43 | 41.84967 | -5.04806 | 34008 ft | 474 kts | 68° |
| 2026-05-04 11:44 | 41.87351 | -4.96572 | 34006 ft | 474 kts | 68° |
| 2026-05-04 11:44 | 41.89732 | -4.88334 | 34015 ft | 473 kts | 69° |
| 2026-05-04 11:45 | 41.92113 | -4.80105 | 34011 ft | 472 kts | 69° |
| 2026-05-04 11:45 | 41.94480 | -4.71878 | 34009 ft | 472 kts | 69° |
| 2026-05-04 11:46 | 41.96812 | -4.63704 | 34001 ft | 472 kts | 69° |
| 2026-05-04 11:46 | 41.99166 | -4.55463 | 34004 ft | 472 kts | 69° |
| 2026-05-04 11:47 | 42.01515 | -4.47208 | 34004 ft | 473 kts | 69° |
| 2026-05-04 11:47 | 42.03854 | -4.38957 | 34006 ft | 473 kts | 70° |
| 2026-05-04 11:48 | 42.06176 | -4.30747 | 34024 ft | 473 kts | 70° |
| 2026-05-04 11:48 | 42.08516 | -4.22477 | 34005 ft | 473 kts | 70° |
| 2026-05-04 11:49 | 42.10840 | -4.14196 | 34019 ft | 472 kts | 70° |
| 2026-05-04 11:49 | 42.13160 | -4.05925 | 34025 ft | 471 kts | 70° |
| 2026-05-04 11:50 | 42.15439 | -3.97726 | 34012 ft | 470 kts | 70° |
| 2026-05-04 11:50 | 42.17743 | -3.89469 | 34012 ft | 470 kts | 70° |
| 2026-05-04 11:51 | 42.20032 | -3.81211 | 33987 ft | 471 kts | 70° |
| 2026-05-04 11:51 | 42.22327 | -3.72914 | 34015 ft | 473 kts | 71° |
| 2026-05-04 11:52 | 42.24587 | -3.64645 | 34018 ft | 472 kts | 71° |
| 2026-05-04 11:52 | 42.26863 | -3.56329 | 34028 ft | 473 kts | 71° |
| 2026-05-04 11:53 | 42.29140 | -3.48000 | 34032 ft | 473 kts | 71° |
| 2026-05-04 11:53 | 42.31414 | -3.39663 | 34013 ft | 474 kts | 72° |
| 2026-05-04 11:55 | 42.40435 | -3.06301 | 34006 ft | 472 kts | 72° |
| 2026-05-04 11:56 | 42.42655 | -2.98005 | 33995 ft | 473 kts | 72° |
| 2026-05-04 11:56 | 42.44825 | -2.89610 | 33995 ft | 471 kts | 78° |
| 2026-05-04 11:56 | 42.45380 | -2.85264 | 33997 ft | 466 kts | 90° |
| 2026-05-04 11:57 | 42.45495 | -2.80891 | 34013 ft | 464 kts | 93° |
| 2026-05-04 11:57 | 42.45561 | -2.72155 | 33998 ft | 464 kts | 93° |
| 2026-05-04 11:58 | 42.45661 | -2.63479 | 33980 ft | 464 kts | 94° |
| 2026-05-04 11:58 | 42.45776 | -2.54738 | 33993 ft | 464 kts | 94° |
| 2026-05-04 11:59 | 42.45886 | -2.46000 | 33993 ft | 464 kts | 94° |
| 2026-05-04 11:59 | 42.45985 | -2.37253 | 33998 ft | 464 kts | 94° |
| 2026-05-04 12:00 | 42.46679 | -2.28596 | 33964 ft | 470 kts | 82° |
| 2026-05-04 12:00 | 42.48145 | -2.19962 | 33991 ft | 469 kts | 81° |
| 2026-05-04 12:01 | 42.49595 | -2.11369 | 34007 ft | 469 kts | 82° |
| 2026-05-04 12:02 | 42.54570 | -1.81180 | 33961 ft | 470 kts | 82° |
| 2026-05-04 12:03 | 42.55968 | -1.72518 | 33971 ft | 471 kts | 82° |
| 2026-05-04 12:03 | 42.57365 | -1.63842 | 33960 ft | 469 kts | 82° |
| 2026-05-04 12:04 | 42.58758 | -1.55176 | 33964 ft | 471 kts | 82° |
| 2026-05-04 12:04 | 42.60132 | -1.46511 | 33935 ft | 475 kts | 83° |
| 2026-05-04 12:05 | 42.61526 | -1.37766 | 33973 ft | 472 kts | 83° |
| 2026-05-04 12:05 | 42.62918 | -1.29061 | 33959 ft | 472 kts | 83° |
| 2026-05-04 12:06 | 42.64288 | -1.20338 | 33963 ft | 473 kts | 83° |
| 2026-05-04 12:06 | 42.65648 | -1.11655 | 33919 ft | 475 kts | 83° |
| 2026-05-04 12:07 | 42.67008 | -1.02845 | 33944 ft | 479 kts | 83° |
| 2026-05-04 12:07 | 42.68386 | -0.93980 | 33962 ft | 479 kts | 83° |
| 2026-05-04 12:08 | 42.69743 | -0.85127 | 33961 ft | 479 kts | 84° |
| 2026-05-04 12:08 | 42.71083 | -0.76339 | 33921 ft | 478 kts | 83° |
| 2026-05-04 12:09 | 42.72436 | -0.67445 | 33951 ft | 482 kts | 83° |
| 2026-05-04 12:09 | 42.73793 | -0.58516 | 33968 ft | 482 kts | 84° |
| 2026-05-04 12:10 | 42.75141 | -0.49579 | 33969 ft | 482 kts | 84° |
| 2026-05-04 12:10 | 42.76469 | -0.40693 | 33956 ft | 483 kts | 84° |
| 2026-05-04 12:11 | 42.77798 | -0.31752 | 33963 ft | 482 kts | 84° |
| 2026-05-04 12:11 | 42.79191 | -0.22825 | 33957 ft | 485 kts | 78° |
| 2026-05-04 12:12 | 42.80437 | -0.18529 | 33948 ft | 492 kts | 65° |
| 2026-05-04 12:12 | 42.82341 | -0.14633 | 33968 ft | 496 kts | 53° |
| 2026-05-04 12:12 | 42.86738 | -0.07443 | 33974 ft | 498 kts | 51° |
| 2026-05-04 12:14 | 43.04288 | 0.21795 | 33974 ft | 494 kts | 52° |
| 2026-05-04 12:15 | 43.08591 | 0.29043 | 33949 ft | 496 kts | 52° |
| 2026-05-04 12:15 | 43.12920 | 0.36340 | 33937 ft | 494 kts | 52° |
| 2026-05-04 12:16 | 43.17254 | 0.43663 | 33920 ft | 495 kts | 52° |
| 2026-05-04 12:16 | 43.21593 | 0.51010 | 33927 ft | 495 kts | 52° |
| 2026-05-04 12:17 | 43.25868 | 0.58284 | 33936 ft | 492 kts | 52° |
| 2026-05-04 12:17 | 43.30162 | 0.65611 | 33935 ft | 493 kts | 52° |
| 2026-05-04 12:18 | 43.34452 | 0.72942 | 33930 ft | 492 kts | 52° |
| 2026-05-04 12:18 | 43.38725 | 0.80246 | 33917 ft | 495 kts | 52° |
| 2026-05-04 12:19 | 43.43030 | 0.87642 | 33964 ft | 495 kts | 52° |
| 2026-05-04 12:19 | 43.47307 | 0.95004 | 33934 ft | 492 kts | 52° |
| 2026-05-04 12:20 | 43.51578 | 1.02365 | 33929 ft | 492 kts | 52° |
| 2026-05-04 12:20 | 43.55846 | 1.09743 | 33929 ft | 492 kts | 53° |
| 2026-05-04 12:21 | 43.60083 | 1.17068 | 33901 ft | 493 kts | 52° |
| 2026-05-04 12:21 | 43.64346 | 1.24495 | 33944 ft | 492 kts | 53° |
| 2026-05-04 12:22 | 43.68564 | 1.31935 | 33925 ft | 491 kts | 55° |
| 2026-05-04 12:22 | 43.72621 | 1.39528 | 33933 ft | 491 kts | 55° |
| 2026-05-04 12:23 | 43.76676 | 1.47139 | 33940 ft | 491 kts | 55° |
| 2026-05-04 12:23 | 43.80708 | 1.54684 | 33909 ft | 492 kts | 54° |
| 2026-05-04 12:24 | 43.84762 | 1.62300 | 33938 ft | 489 kts | 55° |
| 2026-05-04 12:24 | 43.88784 | 1.69913 | 33943 ft | 489 kts | 55° |
| 2026-05-04 12:25 | 43.92800 | 1.77521 | 33935 ft | 489 kts | 55° |
| 2026-05-04 12:25 | 43.96742 | 1.85138 | 33940 ft | 489 kts | 57° |
| 2026-05-04 12:26 | 44.00604 | 1.92909 | 33915 ft | 489 kts | 57° |
| 2026-05-04 12:26 | 44.04456 | 2.00655 | 33948 ft | 485 kts | 57° |
| 2026-05-04 12:27 | 44.08297 | 2.08384 | 33945 ft | 488 kts | 57° |
| 2026-05-04 12:27 | 44.12107 | 2.16074 | 33946 ft | 486 kts | 57° |
| 2026-05-04 12:28 | 44.15943 | 2.23816 | 33950 ft | 485 kts | 57° |
| 2026-05-04 12:28 | 44.19762 | 2.31573 | 33941 ft | 486 kts | 57° |
| 2026-05-04 12:29 | 44.23566 | 2.39314 | 33961 ft | 483 kts | 57° |
| 2026-05-04 12:29 | 44.27357 | 2.47057 | 33961 ft | 483 kts | 57° |
| 2026-05-04 12:30 | 44.31113 | 2.54749 | 33962 ft | 483 kts | 57° |
| 2026-05-04 12:30 | 44.34908 | 2.62529 | 33969 ft | 484 kts | 57° |
| 2026-05-04 12:31 | 44.38679 | 2.70280 | 33952 ft | 483 kts | 57° |
| 2026-05-04 12:31 | 44.42441 | 2.78059 | 33971 ft | 483 kts | 57° |
| 2026-05-04 12:32 | 44.48050 | 2.89660 | 33982 ft | 482 kts | 57° |
| 2026-05-04 12:33 | 44.51789 | 2.97453 | 33991 ft | 483 kts | 58° |
| 2026-05-04 12:33 | 44.55529 | 3.05245 | 33984 ft | 481 kts | 57° |
| 2026-05-04 12:34 | 44.59274 | 3.13058 | 33993 ft | 480 kts | 58° |
| 2026-05-04 12:34 | 44.62739 | 3.20997 | 34005 ft | 479 kts | 63° |
| 2026-05-04 12:35 | 44.65994 | 3.29143 | 34002 ft | 481 kts | 62° |
| 2026-05-04 12:35 | 44.69266 | 3.37316 | 34008 ft | 479 kts | 63° |
| 2026-05-04 12:36 | 44.72522 | 3.45490 | 34002 ft | 479 kts | 63° |
| 2026-05-04 12:36 | 44.75757 | 3.53627 | 34011 ft | 479 kts | 63° |
| 2026-05-04 12:37 | 44.79009 | 3.61818 | 34006 ft | 480 kts | 63° |
| 2026-05-04 12:37 | 44.82252 | 3.69981 | 34010 ft | 478 kts | 63° |
| 2026-05-04 12:38 | 44.85490 | 3.78199 | 34010 ft | 480 kts | 63° |
| 2026-05-04 12:38 | 44.88708 | 3.86361 | 34007 ft | 479 kts | 63° |
| 2026-05-04 12:39 | 44.91953 | 3.94581 | 34016 ft | 479 kts | 63° |
| 2026-05-04 12:39 | 44.95175 | 4.02820 | 34029 ft | 479 kts | 63° |
| 2026-05-04 12:40 | 44.98385 | 4.11056 | 34023 ft | 479 kts | 63° |
| 2026-05-04 12:40 | 45.01583 | 4.19276 | 34028 ft | 478 kts | 63° |
| 2026-05-04 12:41 | 45.04751 | 4.27451 | 34033 ft | 476 kts | 64° |
| 2026-05-04 12:41 | 45.07916 | 4.35655 | 34043 ft | 475 kts | 64° |
| 2026-05-04 12:42 | 45.11086 | 4.43863 | 34036 ft | 476 kts | 64° |
| 2026-05-04 12:42 | 45.14236 | 4.52059 | 34036 ft | 473 kts | 64° |
| 2026-05-04 12:43 | 45.17354 | 4.60212 | 34030 ft | 473 kts | 64° |
| 2026-05-04 12:43 | 45.20485 | 4.68413 | 34026 ft | 473 kts | 64° |
| 2026-05-04 12:44 | 45.23615 | 4.76634 | 34030 ft | 473 kts | 64° |
| 2026-05-04 12:44 | 45.26738 | 4.84849 | 34040 ft | 474 kts | 64° |
| 2026-05-04 12:45 | 45.29850 | 4.93069 | 34053 ft | 471 kts | 65° |
| 2026-05-04 12:45 | 45.32925 | 5.01218 | 34049 ft | 471 kts | 65° |
| 2026-05-04 12:46 | 45.36023 | 5.09437 | 34041 ft | 472 kts | 65° |
| 2026-05-04 12:46 | 45.39109 | 5.17667 | 34049 ft | 472 kts | 65° |
| 2026-05-04 12:47 | 45.42190 | 5.25910 | 34056 ft | 471 kts | 65° |
| 2026-05-04 12:47 | 45.45264 | 5.34158 | 34056 ft | 472 kts | 65° |
| 2026-05-04 12:48 | 45.48402 | 5.42299 | 34045 ft | 473 kts | 59° |
| 2026-05-04 12:48 | 45.50482 | 5.45958 | 34015 ft | 477 kts | 46° |
| 2026-05-04 12:48 | 45.52903 | 5.49161 | 34032 ft | 475 kts | 43° |
| 2026-05-04 12:49 | 45.57869 | 5.55384 | 34045 ft | 475 kts | 42° |
| 2026-05-04 12:49 | 45.62790 | 5.61664 | 34048 ft | 475 kts | 43° |
| 2026-05-04 12:50 | 45.67664 | 5.67939 | 34073 ft | 475 kts | 43° |
| 2026-05-04 12:50 | 45.72594 | 5.74237 | 34050 ft | 475 kts | 43° |
| 2026-05-04 12:51 | 45.77521 | 5.80549 | 34064 ft | 475 kts | 43° |
| 2026-05-04 12:51 | 45.82411 | 5.86902 | 34077 ft | 475 kts | 43° |
| 2026-05-04 12:52 | 45.87279 | 5.93198 | 34063 ft | 473 kts | 43° |
| 2026-05-04 12:52 | 45.92158 | 5.99508 | 34081 ft | 472 kts | 43° |
| 2026-05-04 12:53 | 45.97032 | 6.05827 | 34083 ft | 472 kts | 43° |
| 2026-05-04 12:53 | 46.01901 | 6.12164 | 34090 ft | 472 kts | 43° |
| 2026-05-04 12:54 | 46.06736 | 6.18448 | 34078 ft | 471 kts | 43° |
| 2026-05-04 12:54 | 46.11492 | 6.24960 | 34073 ft | 472 kts | 46° |
| 2026-05-04 12:55 | 46.16162 | 6.31607 | 34079 ft | 472 kts | 46° |
| 2026-05-04 12:55 | 46.20831 | 6.38249 | 34067 ft | 471 kts | 46° |
| 2026-05-04 12:56 | 46.25479 | 6.44885 | 34057 ft | 468 kts | 45° |
| 2026-05-04 12:56 | 46.30088 | 6.51460 | 34049 ft | 469 kts | 45° |
| 2026-05-04 12:57 | 46.34741 | 6.58082 | 34041 ft | 470 kts | 45° |
| 2026-05-04 12:57 | 46.39365 | 6.64736 | 34038 ft | 468 kts | 46° |
| 2026-05-04 12:58 | 46.43979 | 6.71404 | 34032 ft | 468 kts | 45° |
| 2026-05-04 12:58 | 46.48564 | 6.78030 | 34026 ft | 468 kts | 46° |
| 2026-05-04 12:59 | 46.53184 | 6.84700 | 34027 ft | 468 kts | 45° |
| 2026-05-04 12:59 | 46.57575 | 6.91659 | 34025 ft | 467 kts | 51° |
| 2026-05-04 13:00 | 46.61641 | 6.99012 | 34025 ft | 467 kts | 52° |
| 2026-05-04 13:00 | 46.65704 | 7.06383 | 34031 ft | 467 kts | 52° |
| 2026-05-04 13:01 | 46.69737 | 7.13709 | 34038 ft | 466 kts | 52° |
| 2026-05-04 13:01 | 46.73797 | 7.21068 | 34023 ft | 466 kts | 52° |
| 2026-05-04 13:02 | 46.77874 | 7.28447 | 33998 ft | 467 kts | 52° |
| 2026-05-04 13:02 | 46.81946 | 7.35839 | 33975 ft | 467 kts | 52° |
| 2026-05-04 13:03 | 46.85974 | 7.43157 | 33991 ft | 465 kts | 51° |
| 2026-05-04 13:03 | 46.90022 | 7.50537 | 33977 ft | 465 kts | 52° |
| 2026-05-04 13:04 | 46.94051 | 7.57940 | 33984 ft | 465 kts | 52° |
| 2026-05-04 13:04 | 46.98074 | 7.65366 | 33974 ft | 466 kts | 52° |
| 2026-05-04 13:05 | 47.02093 | 7.72805 | 33973 ft | 466 kts | 52° |
| 2026-05-04 13:05 | 47.06083 | 7.80208 | 33960 ft | 466 kts | 52° |
| 2026-05-04 13:06 | 47.10098 | 7.87674 | 33966 ft | 466 kts | 52° |
| 2026-05-04 13:06 | 47.14028 | 7.95242 | 33968 ft | 466 kts | 58° |
| 2026-05-04 13:07 | 47.17489 | 8.03304 | 33967 ft | 466 kts | 59° |
| 2026-05-04 13:07 | 47.20903 | 8.11337 | 33969 ft | 466 kts | 59° |
| 2026-05-04 13:08 | 47.24348 | 8.19452 | 33974 ft | 469 kts | 59° |
| 2026-05-04 13:08 | 47.27803 | 8.27607 | 33972 ft | 469 kts | 59° |
| 2026-05-04 13:09 | 47.30840 | 8.36031 | 33960 ft | 464 kts | 71° |
| 2026-05-04 13:09 | 47.32811 | 8.45017 | 33988 ft | 463 kts | 74° |
| 2026-05-04 13:10 | 47.34761 | 8.54064 | 33992 ft | 463 kts | 73° |
| 2026-05-04 13:10 | 47.36758 | 8.63100 | 33993 ft | 464 kts | 73° |
| 2026-05-04 13:11 | 47.38770 | 8.72136 | 34000 ft | 464 kts | 73° |
| 2026-05-04 13:11 | 47.40745 | 8.81159 | 33982 ft | 457 kts | 74° |
| 2026-05-04 13:12 | 47.42667 | 8.90031 | 33983 ft | 457 kts | 74° |
| 2026-05-04 13:12 | 47.44600 | 8.98962 | 33975 ft | 457 kts | 74° |
| 2026-05-04 13:13 | 47.46527 | 9.07916 | 33968 ft | 457 kts | 74° |
| 2026-05-04 13:13 | 47.48442 | 9.16872 | 33963 ft | 458 kts | 74° |
| 2026-05-04 13:14 | 47.50351 | 9.25818 | 33950 ft | 452 kts | 74° |
| 2026-05-04 13:14 | 47.52213 | 9.34618 | 33957 ft | 451 kts | 74° |
| 2026-05-04 13:15 | 47.54091 | 9.43484 | 33962 ft | 452 kts | 74° |
| 2026-05-04 13:15 | 47.55939 | 9.52360 | 33964 ft | 451 kts | 75° |
| 2026-05-04 13:16 | 47.57766 | 9.61250 | 33881 ft | 449 kts | 75° |
| 2026-05-04 13:16 | 47.58441 | 9.65716 | 33328 ft | 440 kts | 86° |
| 2026-05-04 13:16 | 47.58493 | 9.70133 | 32712 ft | 433 kts | 95° |
| 2026-05-04 13:16 | 47.58315 | 9.74566 | 32101 ft | 429 kts | 96° |
| 2026-05-04 13:17 | 47.58112 | 9.78947 | 31519 ft | 426 kts | 96° |
| 2026-05-04 13:17 | 47.57917 | 9.83310 | 30937 ft | 423 kts | 96° |
| 2026-05-04 13:17 | 47.57735 | 9.87636 | 30394 ft | 419 kts | 96° |
| 2026-05-04 13:17 | 47.57557 | 9.91925 | 29835 ft | 416 kts | 96° |
| 2026-05-04 13:18 | 47.57381 | 9.96184 | 29208 ft | 412 kts | 96° |
| 2026-05-04 13:18 | 47.57205 | 10.00393 | 28640 ft | 408 kts | 96° |
| 2026-05-04 13:18 | 47.57028 | 10.04570 | 28110 ft | 403 kts | 96° |
| 2026-05-04 13:18 | 47.56852 | 10.08627 | 27612 ft | 399 kts | 96° |
| 2026-05-04 13:19 | 47.56677 | 10.12702 | 27119 ft | 394 kts | 96° |
| 2026-05-04 13:19 | 47.56561 | 10.15429 | 26774 ft | 392 kts | 96° |
| 2026-05-04 13:19 | 47.56332 | 10.20732 | 26097 ft | 387 kts | 96° |
| 2026-05-04 13:19 | 47.56161 | 10.24697 | 25613 ft | 384 kts | 96° |
| 2026-05-04 13:20 | 47.55989 | 10.28625 | 25153 ft | 380 kts | 96° |
| 2026-05-04 13:20 | 47.55816 | 10.32518 | 24668 ft | 378 kts | 96° |
| 2026-05-04 13:20 | 47.55643 | 10.36391 | 24181 ft | 376 kts | 96° |
| 2026-05-04 13:20 | 47.55467 | 10.40220 | 23709 ft | 373 kts | 97° |
| 2026-05-04 13:21 | 47.55292 | 10.44001 | 23188 ft | 371 kts | 97° |
| 2026-05-04 13:21 | 47.55116 | 10.47789 | 22659 ft | 368 kts | 97° |
| 2026-05-04 13:21 | 47.54945 | 10.51546 | 22133 ft | 364 kts | 95° |
| 2026-05-04 13:21 | 47.55080 | 10.55274 | 21622 ft | 364 kts | 79° |
| 2026-05-04 13:22 | 47.55952 | 10.58772 | 21132 ft | 362 kts | 63° |
| 2026-05-04 13:22 | 47.57224 | 10.61986 | 20662 ft | 362 kts | 60° |
| 2026-05-04 13:22 | 47.58555 | 10.65137 | 20207 ft | 360 kts | 59° |
| 2026-05-04 13:22 | 47.59869 | 10.68277 | 19758 ft | 358 kts | 60° |
| 2026-05-04 13:23 | 47.61153 | 10.71415 | 19304 ft | 356 kts | 60° |
| 2026-05-04 13:23 | 47.62408 | 10.74521 | 18875 ft | 355 kts | 61° |
| 2026-05-04 13:23 | 47.63668 | 10.77656 | 18439 ft | 354 kts | 61° |
| 2026-05-04 13:23 | 47.64928 | 10.80791 | 17947 ft | 352 kts | 61° |
| 2026-05-04 13:24 | 47.66176 | 10.83899 | 17474 ft | 349 kts | 61° |
| 2026-05-04 13:24 | 47.67421 | 10.86974 | 17035 ft | 346 kts | 60° |
| 2026-05-04 13:24 | 47.68850 | 10.89816 | 16598 ft | 346 kts | 45° |
| 2026-05-04 13:25 | 47.72593 | 10.94301 | 15822 ft | 346 kts | 39° |
| 2026-05-04 13:25 | 47.74489 | 10.96514 | 15426 ft | 347 kts | 39° |
| 2026-05-04 13:25 | 47.76354 | 10.98721 | 15032 ft | 348 kts | 39° |
| 2026-05-04 13:25 | 47.78244 | 11.00969 | 14614 ft | 349 kts | 39° |
| 2026-05-04 13:26 | 47.80138 | 11.03212 | 14171 ft | 346 kts | 39° |
| 2026-05-04 13:26 | 47.82009 | 11.05419 | 13786 ft | 341 kts | 39° |
| 2026-05-04 13:26 | 47.83848 | 11.07602 | 13329 ft | 336 kts | 39° |
| 2026-05-04 13:26 | 47.85662 | 11.09762 | 12892 ft | 331 kts | 39° |
| 2026-05-04 13:27 | 47.87447 | 11.11888 | 12485 ft | 326 kts | 39° |
| 2026-05-04 13:27 | 47.89205 | 11.13976 | 12055 ft | 322 kts | 39° |
| 2026-05-04 13:27 | 47.90922 | 11.16020 | 11636 ft | 318 kts | 39° |
| 2026-05-04 13:27 | 47.92645 | 11.18071 | 11222 ft | 315 kts | 39° |
| 2026-05-04 13:28 | 47.94348 | 11.20103 | 10816 ft | 312 kts | 39° |
| 2026-05-04 13:28 | 47.96034 | 11.22112 | 10425 ft | 309 kts | 39° |
| 2026-05-04 13:28 | 47.97710 | 11.24109 | 10049 ft | 308 kts | 39° |
| 2026-05-04 13:28 | 47.99386 | 11.26108 | 9672 ft | 309 kts | 39° |
| 2026-05-04 13:29 | 48.01055 | 11.28104 | 9263 ft | 305 kts | 39° |
| 2026-05-04 13:29 | 48.02149 | 11.29415 | 8987 ft | 304 kts | 39° |
| 2026-05-04 13:29 | 48.04321 | 11.32016 | 8429 ft | 300 kts | 39° |
| 2026-05-04 13:29 | 48.05938 | 11.33952 | 8032 ft | 296 kts | 38° |
| 2026-05-04 13:30 | 48.07690 | 11.35511 | 7655 ft | 292 kts | 22° |
| 2026-05-04 13:30 | 48.09592 | 11.36529 | 7302 ft | 291 kts | 18° |
| 2026-05-04 13:30 | 48.11514 | 11.37498 | 6918 ft | 291 kts | 18° |
| 2026-05-04 13:30 | 48.13424 | 11.38470 | 6553 ft | 288 kts | 19° |
| 2026-05-04 13:31 | 48.15315 | 11.39441 | 6225 ft | 286 kts | 19° |
| 2026-05-04 13:31 | 48.17187 | 11.40411 | 5871 ft | 283 kts | 19° |
| 2026-05-04 13:31 | 48.18412 | 11.41048 | 5647 ft | 279 kts | 19° |
| 2026-05-04 13:31 | 48.20233 | 11.41999 | 5305 ft | 275 kts | 19° |
| 2026-05-04 13:32 | 48.22593 | 11.43235 | 4994 ft | 268 kts | 20° |
| 2026-05-04 13:32 | 48.24351 | 11.44159 | 4976 ft | 264 kts | 20° |
| 2026-05-04 13:32 | 48.26027 | 11.45039 | 4968 ft | 248 kts | 20° |
| 2026-05-04 13:32 | 48.27105 | 11.45604 | 4952 ft | 237 kts | 20° |
| 2026-05-04 13:33 | 48.28630 | 11.46404 | 4950 ft | 235 kts | 20° |
| 2026-05-04 13:33 | 48.30121 | 11.47187 | 4968 ft | 219 kts | 21° |
| 2026-05-04 13:33 | 48.31442 | 11.48148 | 4951 ft | 208 kts | 41° |
| 2026-05-04 13:33 | 48.32220 | 11.49905 | 4852 ft | 200 kts | 73° |
| 2026-05-04 13:34 | 48.32450 | 11.52559 | 4564 ft | 191 kts | 86° |
| 2026-05-04 13:34 | 48.32521 | 11.54532 | 4267 ft | 188 kts | 85° |
| 2026-05-04 13:34 | 48.32630 | 11.56469 | 3966 ft | 184 kts | 83° |
| 2026-05-04 13:34 | 48.32724 | 11.57748 | 3795 ft | 179 kts | 83° |
| 2026-05-04 13:35 | 48.32855 | 11.59505 | 3665 ft | 164 kts | 82° |
| 2026-05-04 13:35 | 48.33101 | 11.62608 | 3312 ft | 142 kts | 82° |
| 2026-05-04 13:35 | 48.33223 | 11.64094 | 3120 ft | 144 kts | 82° |
| 2026-05-04 13:36 | 48.33339 | 11.65582 | 2977 ft | 144 kts | 83° |
| 2026-05-04 13:36 | 48.33465 | 11.67093 | 2810 ft | 147 kts | 82° |
| 2026-05-04 13:36 | 48.33587 | 11.68632 | 2478 ft | 149 kts | 83° |
| 2026-05-04 13:36 | 48.33701 | 11.70163 | 2206 ft | 142 kts | 82° |
| 2026-05-04 13:37 | 48.33797 | 11.71581 | 1969 ft | 138 kts | 83° |
| 2026-05-04 13:37 | 48.33907 | 11.73002 | 1796 ft | 136 kts | 82° |
| 2026-05-04 13:37 | 48.34021 | 11.74419 | 1616 ft | 136 kts | 83° |
| 2026-05-04 13:37 | 48.34123 | 11.75784 | 1487 ft | 121 kts | 82° |
| 2026-05-04 13:38 | 48.34197 | 11.76775 | 1491 ft | 70 kts | 84° |
| 2026-05-04 13:38 | 48.34244 | 11.77374 | 1491 ft | 50 kts | 83° |
| 2026-05-04 13:38 | 48.34285 | 11.77886 | 1479 ft | 49 kts | 83° |
| 2026-05-04 13:38 | 48.34324 | 11.78387 | 1481 ft | 48 kts | 83° |
| 2026-05-04 13:39 | 48.34358 | 11.78801 | 1491 ft | 37 kts | 83° |
| 2026-05-04 13:39 | 48.34388 | 11.79031 | 1489 ft | 22 kts | 65° |
| 2026-05-04 13:39 | 48.34469 | 11.79229 | 1491 ft | 23 kts | 52° |
| 2026-05-04 13:39 | 48.34548 | 11.79388 | 1487 ft | 8 kts | 53° |
| 2026-05-04 13:40 | 48.34586 | 11.79466 | 1485 ft | 10 kts | 53° |
| 2026-05-04 13:40 | 48.34634 | 11.79562 | 1489 ft | 13 kts | 53° |
| 2026-05-04 13:40 | 48.34691 | 11.79677 | 1486 ft | 15 kts | 53° |
| 2026-05-04 13:40 | 48.34785 | 11.79706 | 1481 ft | 12 kts | 352° |
| 2026-05-04 13:41 | 48.34873 | 11.79690 | 1488 ft | 14 kts | 353° |
| 2026-05-04 13:41 | 48.34975 | 11.79673 | 1478 ft | 16 kts | 354° |
| 2026-05-04 13:41 | 48.35091 | 11.79653 | 1486 ft | 18 kts | 353° |
| 2026-05-04 13:42 | 48.35293 | 11.79617 | 1491 ft | 9 kts | 353° |
| 2026-05-04 13:42 | 48.35362 | 11.79605 | 1477 ft | 11 kts | 353° |
| 2026-05-04 13:42 | 48.35448 | 11.79591 | 1491 ft | 13 kts | 353° |
| 2026-05-04 13:42 | 48.35522 | 11.79578 | 1491 ft | 2 kts | 352° |
| 2026-05-04 13:43 | 48.35546 | 11.79573 | 1479 ft | 5 kts | 353° |
| 2026-05-04 13:43 | 48.35573 | 11.79605 | 1478 ft | 7 kts | 76° |
| 2026-05-04 13:43 | 48.35579 | 11.79677 | 1491 ft | 4 kts | 83° |
| 2026-05-04 13:43 | 48.35581 | 11.79703 | 1481 ft | 0 kts | 83° |
| 2026-05-04 13:44 | 48.35581 | 11.79706 | 1491 ft | 1 kts | 83° |
| 2026-05-04 13:44 | 48.35581 | 11.79710 | 1491 ft | 0 kts | 83° |